createdAt,value
2023-04-19T00:01:30.355Z,99.90
2023-04-19T00:03:57.313Z,99.90
2023-04-19T00:06:24.685Z,99.90
2023-04-19T00:08:51.716Z,99.90
2023-04-19T00:11:18.457Z,99.90
2023-04-19T00:13:45.462Z,99.90
2023-04-19T00:16:12.261Z,99.90
2023-04-19T00:18:39.219Z,99.90
2023-04-19T00:21:06.388Z,99.90
2023-04-19T00:23:33.083Z,99.90
2023-04-19T00:26:03.939Z,99.90
2023-04-19T00:28:31.096Z,99.90
2023-04-19T00:30:58.141Z,99.90
2023-04-19T00:33:24.922Z,99.90
2023-04-19T00:35:51.810Z,99.90
2023-04-19T00:38:18.698Z,99.90
2023-04-19T00:40:46.695Z,99.90
2023-04-19T00:43:20.343Z,99.90
2023-04-19T00:45:48.533Z,99.90
2023-04-19T00:48:15.564Z,99.90
2023-04-19T00:50:44.803Z,99.90
2023-04-19T00:53:11.840Z,99.90
2023-04-19T00:55:42.604Z,99.90
2023-04-19T00:58:09.894Z,99.90
2023-04-19T01:00:37.515Z,99.90
2023-04-19T01:03:04.571Z,99.90
2023-04-19T01:05:31.451Z,99.90
2023-04-19T01:07:58.229Z,99.90
2023-04-19T01:10:25.260Z,99.90
2023-04-19T01:12:52.000Z,99.90
2023-04-19T01:15:18.805Z,99.90
2023-04-19T01:17:45.864Z,99.90
2023-04-19T01:20:13.583Z,99.90
2023-04-19T01:22:40.441Z,99.90
2023-04-19T01:25:07.729Z,99.90
2023-04-19T01:27:34.604Z,99.90
2023-04-19T01:30:01.261Z,99.90
2023-04-19T01:32:28.084Z,99.90
2023-04-19T01:34:54.822Z,99.90
2023-04-19T01:37:21.625Z,99.90
2023-04-19T01:39:48.390Z,99.90
2023-04-19T01:42:15.213Z,99.90
2023-04-19T01:44:42.016Z,99.90
2023-04-19T01:47:08.779Z,99.90
2023-04-19T01:49:35.755Z,99.90
2023-04-19T01:52:02.498Z,99.90
2023-04-19T01:54:29.240Z,99.90
2023-04-19T01:56:55.964Z,99.90
2023-04-19T01:59:22.709Z,99.90
2023-04-19T02:01:49.444Z,99.90
2023-04-19T02:04:16.340Z,99.90
2023-04-19T02:06:43.262Z,99.90
2023-04-19T02:09:09.971Z,99.90
2023-04-19T02:11:36.736Z,99.90
2023-04-19T02:14:03.444Z,99.90
2023-04-19T02:16:30.258Z,99.90
2023-04-19T02:18:57.008Z,99.90
2023-04-19T02:21:23.720Z,99.90
2023-04-19T02:23:50.764Z,99.90
2023-04-19T02:26:17.432Z,99.90
2023-04-19T02:28:44.116Z,99.90
2023-04-19T02:31:11.031Z,99.90
2023-04-19T02:33:37.758Z,99.90
2023-04-19T02:36:04.712Z,99.90
2023-04-19T02:38:31.392Z,99.90
2023-04-19T02:40:58.107Z,99.90
2023-04-19T02:43:25.007Z,99.90
2023-04-19T02:45:51.797Z,99.90
2023-04-19T02:48:18.596Z,99.90
2023-04-19T02:50:45.386Z,99.90
2023-04-19T02:53:12.131Z,99.90
2023-04-19T02:55:38.859Z,99.90
2023-04-19T02:58:05.613Z,99.90
2023-04-19T03:00:32.451Z,99.90
2023-04-19T03:02:59.392Z,99.90
2023-04-19T03:05:26.343Z,99.90
2023-04-19T03:07:53.085Z,99.90
2023-04-19T03:10:19.891Z,99.90
2023-04-19T03:12:46.632Z,99.90
2023-04-19T03:15:13.401Z,99.90
2023-04-19T03:17:40.536Z,99.90
2023-04-19T03:20:14.221Z,99.90
2023-04-19T03:22:40.955Z,99.90
2023-04-19T03:25:08.624Z,99.90
2023-04-19T03:27:36.771Z,99.90
2023-04-19T03:30:03.741Z,99.90
2023-04-19T03:32:31.907Z,99.90
2023-04-19T03:34:58.594Z,99.90
2023-04-19T03:37:25.273Z,99.90
2023-04-19T03:39:52.016Z,99.90
2023-04-19T03:42:18.799Z,99.90
2023-04-19T03:44:45.715Z,99.90
2023-04-19T03:47:12.502Z,99.90
2023-04-19T03:49:39.279Z,99.90
2023-04-19T03:52:05.999Z,99.90
2023-04-19T03:54:32.683Z,99.90
2023-04-19T03:56:59.624Z,99.90
2023-04-19T03:59:26.498Z,99.90
2023-04-19T04:01:53.293Z,99.90
2023-04-19T04:04:20.311Z,99.90
2023-04-19T04:06:47.386Z,99.90
2023-04-19T04:09:14.063Z,99.90
2023-04-19T04:11:40.715Z,99.90
2023-04-19T04:14:07.494Z,99.90
2023-04-19T04:16:34.224Z,99.90
2023-04-19T04:19:01.015Z,99.90
2023-04-19T04:21:28.174Z,99.90
2023-04-19T04:23:54.947Z,99.90
2023-04-19T04:26:22.020Z,99.90
2023-04-19T04:28:48.692Z,99.90
2023-04-19T04:31:18.033Z,99.90
2023-04-19T04:33:45.911Z,99.90
2023-04-19T04:36:12.867Z,99.90
2023-04-19T04:38:39.615Z,99.90
2023-04-19T04:41:06.402Z,99.90
2023-04-19T04:43:34.638Z,99.90
2023-04-19T04:46:01.921Z,99.90
2023-04-19T04:48:28.780Z,99.90
2023-04-19T04:50:55.612Z,99.90
2023-04-19T04:53:22.362Z,99.90
2023-04-19T04:55:49.069Z,99.90
2023-04-19T04:58:15.861Z,99.90
2023-04-19T05:00:42.829Z,99.90
2023-04-19T05:03:09.688Z,99.90
2023-04-19T05:05:36.585Z,99.90
2023-04-19T05:08:03.619Z,99.90
2023-04-19T05:10:30.384Z,99.90
2023-04-19T05:12:57.104Z,99.90
2023-04-19T05:15:23.938Z,99.90
2023-04-19T05:17:50.736Z,99.90
2023-04-19T05:20:17.511Z,99.90
2023-04-19T05:22:44.256Z,99.90
2023-04-19T05:25:11.622Z,99.90
2023-04-19T05:27:38.446Z,99.90
2023-04-19T05:30:06.618Z,99.90
2023-04-19T05:32:33.582Z,99.90
2023-04-19T05:35:00.339Z,99.90
2023-04-19T05:37:27.121Z,99.90
2023-04-19T05:39:53.824Z,99.90
2023-04-19T05:42:20.602Z,99.90
2023-04-19T05:44:47.331Z,99.90
2023-04-19T05:47:14.080Z,99.90
2023-04-19T05:49:42.024Z,99.90
2023-04-19T05:52:09.873Z,99.90
2023-04-19T05:54:36.675Z,99.90
2023-04-19T05:57:03.836Z,99.90
2023-04-19T05:59:30.678Z,99.90
2023-04-19T06:01:57.670Z,99.90
2023-04-19T06:04:25.038Z,99.90
2023-04-19T06:06:51.907Z,99.90
2023-04-19T06:09:18.759Z,99.90
2023-04-19T06:11:50.891Z,99.90
2023-04-19T06:14:18.635Z,99.90
2023-04-19T06:16:45.816Z,99.90
2023-04-19T06:19:12.570Z,99.90
2023-04-19T06:21:39.374Z,99.90
2023-04-19T06:24:07.386Z,99.90
2023-04-19T06:26:34.135Z,99.90
2023-04-19T06:29:01.268Z,99.90
2023-04-19T06:31:28.049Z,99.90
2023-04-19T06:33:54.819Z,99.90
2023-04-19T06:36:21.601Z,99.90
2023-04-19T06:38:49.928Z,99.90
2023-04-19T06:41:16.932Z,99.90
2023-04-19T06:43:44.744Z,99.90
2023-04-19T06:46:13.843Z,99.90
2023-04-19T06:48:40.964Z,99.90
2023-04-19T06:51:07.939Z,99.90
2023-04-19T06:53:35.697Z,99.90
2023-04-19T06:56:04.461Z,99.90
2023-04-19T06:58:35.380Z,99.90
2023-04-19T07:01:04.483Z,99.90
2023-04-19T07:03:31.899Z,99.90
2023-04-19T07:05:58.899Z,99.90
2023-04-19T07:08:32.262Z,99.90
2023-04-19T07:11:02.088Z,99.90
2023-04-19T07:13:28.809Z,99.90
2023-04-19T07:15:55.618Z,99.90
2023-04-19T07:18:22.379Z,99.90
2023-04-19T07:20:49.459Z,99.70
2023-04-19T07:23:16.323Z,99.40
2023-04-19T07:25:43.118Z,99.10
2023-04-19T07:28:09.926Z,99.00
2023-04-19T07:30:37.509Z,98.80
2023-04-19T07:33:04.980Z,98.60
2023-04-19T07:35:31.754Z,98.40
2023-04-19T07:37:58.479Z,98.30
2023-04-19T07:40:25.320Z,98.10
2023-04-19T07:42:52.038Z,97.80
2023-04-19T07:45:18.846Z,97.40
2023-04-19T07:47:45.684Z,97.00
2023-04-19T07:50:12.557Z,96.70
2023-04-19T07:52:39.503Z,96.60
2023-04-19T07:55:06.976Z,96.50
2023-04-19T07:57:35.468Z,96.30
2023-04-19T08:00:02.344Z,96.00
2023-04-19T08:02:29.142Z,95.70
2023-04-19T08:04:57.805Z,95.40
2023-04-19T08:07:26.102Z,95.30
2023-04-19T08:09:53.180Z,95.30
2023-04-19T08:12:34.511Z,95.10
2023-04-19T08:15:15.407Z,95.10
2023-04-19T08:17:54.590Z,94.70
2023-04-19T08:20:21.818Z,94.40
2023-04-19T08:22:48.575Z,94.10
2023-04-19T08:25:16.518Z,93.90
2023-04-19T08:27:43.290Z,93.70
2023-04-19T08:30:10.954Z,93.70
2023-04-19T08:32:38.075Z,93.40
2023-04-19T08:35:06.036Z,93.00
2023-04-19T08:37:32.724Z,92.90
2023-04-19T08:39:59.443Z,92.90
2023-04-19T08:42:35.656Z,92.90
2023-04-19T08:47:51.771Z,92.60
2023-04-19T08:50:32.473Z,92.50
2023-04-19T08:53:12.212Z,92.50
2023-04-19T08:56:07.021Z,92.20
2023-04-19T09:01:06.804Z,91.70
2023-04-19T09:03:44.023Z,91.70
2023-04-19T09:06:18.611Z,91.60
2023-04-19T09:08:45.556Z,91.50
2023-04-19T09:11:12.314Z,90.90
2023-04-19T09:13:40.551Z,90.10
2023-04-19T09:16:22.639Z,90.20
2023-04-19T09:19:05.469Z,90.20
2023-04-19T09:21:42.426Z,89.50
2023-04-19T09:24:09.236Z,88.80
2023-04-19T09:26:36.611Z,87.70
2023-04-19T09:29:05.430Z,86.90
2023-04-19T09:31:50.806Z,86.50
2023-04-19T09:34:19.823Z,86.40
2023-04-19T09:36:46.984Z,85.30
2023-04-19T09:39:14.601Z,85.60
2023-04-19T09:41:54.838Z,85.40
2023-04-19T09:44:53.074Z,84.20
2023-04-19T09:47:28.839Z,83.30
2023-04-19T09:50:21.764Z,82.10
2023-04-19T09:52:51.045Z,82.60
2023-04-19T09:57:48.547Z,83.10
2023-04-19T10:00:15.776Z,82.80
2023-04-19T10:02:43.568Z,81.60
2023-04-19T10:05:20.556Z,80.40
2023-04-19T10:07:49.511Z,80.00
2023-04-19T10:10:20.833Z,79.60
2023-04-19T10:13:11.463Z,79.50
2023-04-19T10:18:09.001Z,77.50
2023-04-19T10:20:45.893Z,76.40
2023-04-19T10:23:13.044Z,75.90
2023-04-19T10:25:39.753Z,75.90
2023-04-19T10:28:06.527Z,75.40
2023-04-19T10:30:33.402Z,75.10
2023-04-19T10:33:02.947Z,74.90
2023-04-19T10:35:38.292Z,72.90
2023-04-19T10:38:11.211Z,71.50
2023-04-19T10:40:56.995Z,71.10
2023-04-19T10:43:25.201Z,70.70
2023-04-19T10:45:52.770Z,71.10
2023-04-19T10:48:33.240Z,70.10
2023-04-19T10:51:03.662Z,70.50
2023-04-19T10:53:45.647Z,70.30
2023-04-19T10:56:12.702Z,69.40
2023-04-19T10:59:07.944Z,70.00
2023-04-19T11:01:43.468Z,67.90
2023-04-19T11:04:10.623Z,67.90
2023-04-19T11:06:39.153Z,67.90
2023-04-19T11:09:07.242Z,67.40
2023-04-19T11:11:35.809Z,67.00
2023-04-19T11:14:04.345Z,67.10
2023-04-19T11:16:44.872Z,66.30
2023-04-19T11:19:19.826Z,65.30
2023-04-19T11:21:47.272Z,65.50
2023-04-19T11:24:18.967Z,66.30
2023-04-19T11:26:47.138Z,66.50
2023-04-19T11:29:14.246Z,66.30
2023-04-19T11:31:44.124Z,64.30
2023-04-19T11:34:10.898Z,63.80
2023-04-19T11:36:51.301Z,63.80
2023-04-19T11:39:18.616Z,63.60
2023-04-19T11:41:47.202Z,63.10
2023-04-19T11:44:15.956Z,61.80
2023-04-19T11:46:43.871Z,60.20
2023-04-19T11:49:10.749Z,60.70
2023-04-19T11:51:42.379Z,60.90
2023-04-19T11:54:16.868Z,61.70
2023-04-19T11:57:01.553Z,62.70
2023-04-19T11:59:29.118Z,62.20
2023-04-19T12:01:55.970Z,63.00
2023-04-19T12:04:23.451Z,62.50
2023-04-19T12:07:01.330Z,62.70
2023-04-19T12:09:28.131Z,61.90
2023-04-19T12:11:55.022Z,62.10
2023-04-19T12:14:23.274Z,59.70
2023-04-19T12:17:13.719Z,58.70
2023-04-19T12:19:47.687Z,58.50
2023-04-19T12:22:16.581Z,59.10
2023-04-19T12:24:43.649Z,58.10
2023-04-19T12:27:11.325Z,57.40
2023-04-19T12:29:39.064Z,57.80
2023-04-19T12:32:06.563Z,58.30
2023-04-19T12:34:33.412Z,57.50
2023-04-19T12:37:01.101Z,57.00
2023-04-19T12:39:28.838Z,57.00
2023-04-19T12:41:56.056Z,57.30
2023-04-19T12:44:23.283Z,57.20
2023-04-19T12:46:50.125Z,55.90
2023-04-19T12:49:20.271Z,55.50
2023-04-19T12:51:47.574Z,55.20
2023-04-19T12:54:15.260Z,55.10
2023-04-19T12:56:42.114Z,54.30
2023-04-19T12:59:08.859Z,53.30
2023-04-19T13:01:35.710Z,51.70
2023-04-19T13:04:03.052Z,51.50
2023-04-19T13:06:30.056Z,51.00
2023-04-19T13:09:00.447Z,51.30
2023-04-19T13:11:28.373Z,50.80
2023-04-19T13:13:55.201Z,50.50
2023-04-19T13:16:22.582Z,49.90
2023-04-19T13:18:50.848Z,49.70
2023-04-19T13:21:17.544Z,48.90
2023-04-19T13:23:45.069Z,49.50
2023-04-19T13:26:12.029Z,49.90
2023-04-19T13:28:39.775Z,50.10
2023-04-19T13:31:06.525Z,50.40
2023-04-19T13:33:33.420Z,50.60
2023-04-19T13:36:00.409Z,51.00
2023-04-19T13:38:27.158Z,50.50
2023-04-19T13:40:53.867Z,51.00
2023-04-19T13:43:21.406Z,51.20
2023-04-19T13:45:48.212Z,50.90
2023-04-19T13:48:14.959Z,50.30
2023-04-19T13:50:41.679Z,50.00
2023-04-19T13:53:08.560Z,50.50
2023-04-19T13:55:35.437Z,50.80
2023-04-19T13:58:02.172Z,50.20
2023-04-19T14:00:29.028Z,49.30
2023-04-19T14:02:56.897Z,48.90
2023-04-19T14:05:23.820Z,49.90
2023-04-19T14:07:50.564Z,50.20
2023-04-19T14:10:17.405Z,50.50
2023-04-19T14:12:45.016Z,49.50
2023-04-19T14:15:12.307Z,50.30
2023-04-19T14:17:39.181Z,50.80
2023-04-19T14:20:07.586Z,50.40
2023-04-19T14:22:35.406Z,50.20
2023-04-19T14:25:03.669Z,50.00
2023-04-19T14:27:30.637Z,50.30
2023-04-19T14:29:57.451Z,51.10
2023-04-19T14:32:26.523Z,50.30
2023-04-19T14:34:55.187Z,49.50
2023-04-19T14:37:23.348Z,49.20
2023-04-19T14:39:50.164Z,49.40
2023-04-19T14:42:16.943Z,49.70
2023-04-19T14:44:43.938Z,49.60
2023-04-19T14:47:10.980Z,48.50
2023-04-19T14:49:37.762Z,48.40
2023-04-19T14:52:04.973Z,48.40
2023-04-19T14:54:31.708Z,49.50
2023-04-19T14:56:58.417Z,49.60
2023-04-19T14:59:25.302Z,49.70
2023-04-19T15:01:52.131Z,49.90
2023-04-19T15:04:19.170Z,50.10
2023-04-19T15:06:46.226Z,49.60
2023-04-19T15:09:13.116Z,49.20
2023-04-19T15:11:39.846Z,48.60
2023-04-19T15:14:06.645Z,48.40
2023-04-19T15:16:33.607Z,49.20
2023-04-19T15:19:02.043Z,50.30
2023-04-19T15:21:29.256Z,50.30
2023-04-19T15:23:55.985Z,50.60
2023-04-19T15:26:23.745Z,51.60
2023-04-19T15:28:50.438Z,51.40
2023-04-19T15:31:17.564Z,50.80
2023-04-19T15:33:44.354Z,51.50
2023-04-19T15:36:11.131Z,52.20
2023-04-19T15:38:38.073Z,51.20
2023-04-19T15:41:05.161Z,50.90
2023-04-19T15:43:31.982Z,50.50
2023-04-19T15:45:58.721Z,50.60
2023-04-19T15:48:26.110Z,49.90
2023-04-19T15:50:52.824Z,50.90
2023-04-19T15:53:19.516Z,51.80
2023-04-19T15:55:47.974Z,52.50
2023-04-19T15:58:15.212Z,52.50
2023-04-19T16:00:41.924Z,52.50
2023-04-19T16:03:11.608Z,52.80
2023-04-19T16:05:38.539Z,52.40
2023-04-19T16:08:07.764Z,52.40
2023-04-19T16:10:34.975Z,53.20
2023-04-19T16:13:03.409Z,53.10
2023-04-19T16:15:30.372Z,53.50
2023-04-19T16:17:57.137Z,53.90
2023-04-19T16:20:24.106Z,53.70
2023-04-19T16:22:50.884Z,53.90
2023-04-19T16:25:17.761Z,54.30
2023-04-19T16:27:45.823Z,54.50
2023-04-19T16:30:14.577Z,54.60
2023-04-19T16:32:42.001Z,54.50
2023-04-19T16:35:09.496Z,54.50
2023-04-19T16:37:36.499Z,55.90
2023-04-19T16:40:09.758Z,56.50
2023-04-19T16:42:38.253Z,56.40
2023-04-19T16:45:06.222Z,56.40
2023-04-19T16:47:33.646Z,56.90
2023-04-19T16:50:01.259Z,57.60
2023-04-19T16:52:29.777Z,57.80
2023-04-19T16:54:56.571Z,58.20
2023-04-19T16:57:23.735Z,58.50
2023-04-19T16:59:50.780Z,58.50
2023-04-19T17:02:17.979Z,59.10
2023-04-19T17:04:44.902Z,59.70
2023-04-19T17:07:12.448Z,60.60
2023-04-19T17:09:39.278Z,61.30
2023-04-19T17:12:06.377Z,61.80
2023-04-19T17:14:35.170Z,61.90
2023-04-19T17:17:02.018Z,62.70
2023-04-19T17:19:28.834Z,63.50
2023-04-19T17:21:55.716Z,64.30
2023-04-19T17:24:22.548Z,64.60
2023-04-19T17:26:50.037Z,64.20
2023-04-19T17:29:17.058Z,64.60
2023-04-19T17:31:44.042Z,65.60
2023-04-19T17:34:11.036Z,66.30
2023-04-19T17:36:37.761Z,66.80
2023-04-19T17:39:06.526Z,66.70
2023-04-19T17:41:33.564Z,66.70
2023-04-19T17:44:00.506Z,66.70
2023-04-19T17:46:27.310Z,66.80
2023-04-19T17:48:55.428Z,67.10
2023-04-19T17:51:22.501Z,67.00
2023-04-19T17:53:49.276Z,67.30
2023-04-19T17:56:16.035Z,67.50
2023-04-19T17:58:42.857Z,68.30
2023-04-19T18:01:10.487Z,68.40
2023-04-19T18:03:37.921Z,69.70
2023-04-19T18:06:04.962Z,69.20
2023-04-19T18:08:31.722Z,69.10
2023-04-19T18:10:58.723Z,69.80
2023-04-19T18:13:25.718Z,70.20
2023-04-19T18:15:52.537Z,70.70
2023-04-19T18:18:19.322Z,71.20
2023-04-19T18:20:46.062Z,71.20
2023-04-19T18:23:12.804Z,71.20
2023-04-19T18:25:39.691Z,71.60
2023-04-19T18:28:06.655Z,72.40
2023-04-19T18:30:33.800Z,73.10
2023-04-19T18:33:00.676Z,74.10
2023-04-19T18:35:27.521Z,75.10
2023-04-19T18:37:54.244Z,76.10
2023-04-19T18:40:21.105Z,77.00
2023-04-19T18:42:47.889Z,77.90
2023-04-19T18:45:15.065Z,78.50
2023-04-19T18:47:41.981Z,79.20
2023-04-19T18:50:09.545Z,80.00
2023-04-19T18:52:37.452Z,80.60
2023-04-19T18:55:05.846Z,81.10
2023-04-19T18:57:34.909Z,81.60
2023-04-19T19:00:02.655Z,82.20
2023-04-19T19:02:29.615Z,82.80
2023-04-19T19:05:01.350Z,83.30
2023-04-19T19:10:01.673Z,84.40
2023-04-19T19:12:29.131Z,84.60
2023-04-19T19:14:56.037Z,84.90
2023-04-19T19:17:24.313Z,85.00
2023-04-19T19:19:51.283Z,85.10
2023-04-19T19:22:27.836Z,85.30
2023-04-19T19:24:55.472Z,85.30
2023-04-19T19:27:22.304Z,85.40
2023-04-19T19:29:49.112Z,85.20
2023-04-19T19:32:16.090Z,84.90
2023-04-19T19:34:53.839Z,85.50
2023-04-19T19:37:22.113Z,84.60
2023-04-19T19:39:49.047Z,84.60
2023-04-19T19:42:16.802Z,84.80
2023-04-19T19:44:43.839Z,84.70
2023-04-19T19:47:11.310Z,84.80
2023-04-19T19:52:08.037Z,85.10
2023-04-19T19:54:34.872Z,85.50
2023-04-19T19:59:34.872Z,85.90
2023-04-19T20:02:03.685Z,86.30
2023-04-19T20:04:31.702Z,86.80
2023-04-19T20:09:28.346Z,87.20
2023-04-19T20:11:55.135Z,87.50
2023-04-19T20:14:23.751Z,87.90
2023-04-19T20:16:51.821Z,88.30
2023-04-19T20:19:19.425Z,88.60
2023-04-19T20:21:47.074Z,89.60
2023-04-19T20:24:14.052Z,89.20
2023-04-19T20:26:40.889Z,89.50
2023-04-19T20:29:07.885Z,89.80
2023-04-19T20:31:34.671Z,90.00
2023-04-19T20:34:01.447Z,90.00
2023-04-19T20:36:28.421Z,90.20
2023-04-19T20:38:56.951Z,90.20
2023-04-19T20:41:23.680Z,90.30
2023-04-19T20:43:50.754Z,90.30
2023-04-19T20:46:17.577Z,90.40
2023-04-19T20:48:44.326Z,90.50
2023-04-19T20:51:12.731Z,90.60
2023-04-19T20:53:39.439Z,90.60
2023-04-19T20:56:06.183Z,90.70
2023-04-19T20:58:33.683Z,90.70
2023-04-19T21:01:00.683Z,90.70
2023-04-19T21:03:27.701Z,90.70
2023-04-19T21:05:54.553Z,90.70
2023-04-19T21:08:23.450Z,90.60
2023-04-19T21:10:50.219Z,90.50
2023-04-19T21:13:16.898Z,90.20
2023-04-19T21:15:43.615Z,90.00
2023-04-19T21:18:10.366Z,89.70
2023-04-19T21:20:37.801Z,89.00
2023-04-19T21:23:04.568Z,88.50
2023-04-19T21:25:31.479Z,87.80
2023-04-19T21:27:58.199Z,87.50
2023-04-19T21:30:25.687Z,87.10
2023-04-19T21:32:52.931Z,86.80
2023-04-19T21:35:19.948Z,86.40
2023-04-19T21:37:46.733Z,86.30
2023-04-19T21:40:13.622Z,86.20
2023-04-19T21:42:40.504Z,86.10
2023-04-19T21:45:07.734Z,86.00
2023-04-19T21:47:34.605Z,85.80
2023-04-19T21:50:01.468Z,85.70
2023-04-19T21:52:28.213Z,85.70
2023-04-19T21:54:55.028Z,85.40
2023-04-19T21:57:25.252Z,85.10
2023-04-19T21:59:51.969Z,84.60
2023-04-19T22:02:18.968Z,84.00
2023-04-19T22:04:45.772Z,83.30
2023-04-19T22:07:12.571Z,82.60
2023-04-19T22:09:39.854Z,82.30
2023-04-19T22:12:06.897Z,82.00
2023-04-19T22:14:33.672Z,81.50
2023-04-19T22:17:02.518Z,81.40
2023-04-19T22:19:29.624Z,81.30
2023-04-19T22:21:56.838Z,81.00
2023-04-19T22:24:23.764Z,80.60
2023-04-19T22:26:50.891Z,79.80
2023-04-19T22:29:18.101Z,79.40
2023-04-19T22:31:45.166Z,78.90
2023-04-19T22:34:11.946Z,78.60
2023-04-19T22:36:38.678Z,77.90
2023-04-19T22:39:05.516Z,77.10
2023-04-19T22:41:33.428Z,76.70
2023-04-19T22:44:00.479Z,76.50
2023-04-19T22:46:27.515Z,76.20
2023-04-19T22:48:56.031Z,76.00
2023-04-19T22:51:24.429Z,76.00
2023-04-19T22:53:51.207Z,76.10
2023-04-19T22:56:17.955Z,75.60
2023-04-19T22:58:44.792Z,75.20
2023-04-19T23:01:11.547Z,74.90
2023-04-19T23:03:38.448Z,74.80
2023-04-19T23:06:05.306Z,75.00
2023-04-19T23:08:33.346Z,75.10
2023-04-19T23:11:00.407Z,74.80
2023-04-19T23:13:28.459Z,74.60
2023-04-19T23:15:55.227Z,74.10
2023-04-19T23:18:22.071Z,74.00
2023-04-19T23:20:48.773Z,74.00
2023-04-19T23:23:15.577Z,74.00
2023-04-19T23:25:42.546Z,74.00
2023-04-19T23:28:11.910Z,73.90
2023-04-19T23:30:39.311Z,73.60
2023-04-19T23:33:06.248Z,73.40
2023-04-19T23:35:33.091Z,73.20
2023-04-19T23:38:00.302Z,73.10
2023-04-19T23:40:27.063Z,73.20
2023-04-19T23:42:53.752Z,73.30
2023-04-19T23:45:20.800Z,72.90
2023-04-19T23:47:47.641Z,72.70
2023-04-19T23:50:14.385Z,72.70
2023-04-19T23:52:41.222Z,72.30
2023-04-19T23:55:08.251Z,72.30
2023-04-19T23:57:35.828Z,72.60
